Abbott, New Mexico
Current Conditions -  °F | °C
As of 9:53 PM on Friday 24 Oct 2014 (Local Time) from KRTN Reporting Station
Clear Clear  
Wind Chill: 50°   Ceiling: Unl
Heat Index: 50°   Visibility: 10mi
Dew Point: 30°   Wind: 7mph
Humidity: 46%   Direction: 20°NNE
Pressure: 30.3"   Gusts: NA
Location:  36.3883°N, 104.381°W
Report Text: KRTN 250353Z AUTO 02006KT 10SM CLR 10/M01 A3030 RMK AO2 SLP205 T01001011
Loading
Personal Weather Stations






























Interactive Weather Map
Tropical Storm Tracking
New forecast layout! Learn more

10-Day Weather Forecast

Advertisements
Track Severe Weather on mobile